Time;durP1;ratioP1;P1;durP2;ratioP2;P2;SDS_P1;SDS_P2;PMS_P1;PMS_P2;Temp;Humidity;BMP_temperature;BMP_pressure;BME280_temperature;BME280_humidity;BME280_pressure;Samples;Min_cycle;Max_cycle;Signal;HPM_P1;HPM_P2
2021/12/17 06:00:52;;;;;;;12.47;11.30;;;8.30;97.20;;;;;;1714439;28;20218;-72
2021/12/17 06:01:42;;;;;;;12.10;10.93;;;8.30;97.20;;;;;;1713910;28;20212;-72
2021/12/17 06:02:34;;;;;;;10.30;9.30;;;8.30;97.20;;;;;;1713835;28;20206;-72
2021/12/17 06:03:25;;;;;;;10.38;9.40;;;8.30;97.20;;;;;;1713769;28;20202;-72
2021/12/17 06:04:17;;;;;;;10.93;9.83;;;8.30;97.20;;;;;;1713781;28;20281;-72
2021/12/17 06:05:08;;;;;;;10.93;9.93;;;8.30;97.20;;;;;;1713815;28;20441;-72
2021/12/17 06:05:59;;;;;;;11.60;10.50;;;8.30;97.20;;;;;;1713909;28;20229;-72
2021/12/17 06:06:50;;;;;;;10.82;9.82;;;8.30;97.20;;;;;;1713831;28;20206;-73
2021/12/17 06:07:42;;;;;;;11.80;10.60;;;8.30;97.20;;;;;;1713886;28;20198;-73
2021/12/17 06:08:33;;;;;;;11.32;10.25;;;8.30;97.20;;;;;;1713793;28;20585;-73
2021/12/17 06:09:24;;;;;;;11.47;10.27;;;8.30;97.20;;;;;;1713607;28;20202;-73
2021/12/17 06:10:15;;;;;;;10.90;9.82;;;8.30;97.20;;;;;;1713705;28;20206;-73
2021/12/17 06:11:07;;;;;;;11.50;10.30;;;8.30;97.20;;;;;;1713807;28;20281;-73
2021/12/17 06:11:58;;;;;;;10.82;9.82;;;8.30;97.20;;;;;;1713419;28;20244;-73
2021/12/17 06:12:50;;;;;;;10.97;9.87;;;8.30;97.20;;;;;;1713733;28;20202;-73
2021/12/17 06:13:40;;;;;;;10.50;9.50;;;8.30;97.20;;;;;;1713928;28;20224;-73
2021/12/17 06:14:32;;;;;;;10.80;9.80;;;8.30;97.20;;;;;;1713746;28;20205;-74
2021/12/17 06:15:23;;;;;;;11.02;10.05;;;8.30;97.20;;;;;;1713854;28;20641;-73
2021/12/17 06:16:16;;;;;;;11.15;10.05;;;8.30;97.20;;;;;;1715333;28;20190;-73
2021/12/17 06:17:07;;;;;;;10.80;9.70;;;8.30;97.20;;;;;;1720395;28;20229;-74
2021/12/17 06:17:59;;;;;;;11.30;10.20;;;8.30;97.20;;;;;;1720503;28;20201;-73
2021/12/17 06:18:49;;;;;;;11.18;10.05;;;8.30;97.20;;;;;;1720186;28;20240;-74
2021/12/17 06:19:41;;;;;;;11.67;10.47;;;8.30;97.20;;;;;;1720571;28;20212;-74
2021/12/17 06:20:32;;;;;;;11.93;10.82;;;8.30;97.20;;;;;;1720330;28;20283;-73
2021/12/17 06:21:24;;;;;;;10.83;9.70;;;8.30;97.20;;;;;;1720549;28;20279;-73
2021/12/17 06:22:16;;;;;;;11.68;10.52;;;8.30;97.20;;;;;;1720506;28;20487;-73
2021/12/17 06:23:07;;;;;;;12.00;10.80;;;8.30;97.20;;;;;;1720475;28;20664;-73
2021/12/17 06:23:58;;;;;;;13.13;11.75;;;8.30;97.20;;;;;;1720457;28;20225;-73
2021/12/17 06:24:50;;;;;;;11.50;10.50;;;8.30;97.20;;;;;;1720419;28;20204;-73
2021/12/17 06:25:40;;;;;;;13.18;11.85;;;8.30;97.20;;;;;;1720472;28;20259;-73
2021/12/17 06:26:33;;;;;;;12.43;11.33;;;8.30;97.20;;;;;;1720401;28;20205;-73
2021/12/17 06:27:24;;;;;;;11.70;10.50;;;8.30;97.20;;;;;;1720405;28;20291;-73
2021/12/17 06:28:16;;;;;;;12.20;10.90;;;8.20;97.20;;;;;;1720522;28;20205;-73
2021/12/17 06:29:07;;;;;;;12.05;10.77;;;8.20;97.20;;;;;;1721415;28;20459;-73
2021/12/17 06:29:59;;;;;;;12.57;11.37;;;8.20;97.20;;;;;;1716503;28;20233;-73
2021/12/17 06:30:50;;;;;;;13.30;12.00;;;8.30;97.20;;;;;;1715572;28;20248;-73
2021/12/17 06:31:43;;;;;;;13.50;12.10;;;8.30;97.20;;;;;;1715028;28;20223;-73
2021/12/17 06:32:34;;;;;;;12.90;11.60;;;8.30;97.20;;;;;;1715068;28;20229;-73
2021/12/17 06:33:25;;;;;;;13.03;11.73;;;8.30;97.20;;;;;;1715001;28;20194;-73
2021/12/17 06:34:16;;;;;;;12.90;11.60;;;8.30;97.20;;;;;;1714865;28;20480;-73
2021/12/17 06:35:09;;;;;;;12.87;11.30;;;8.30;97.20;;;;;;1714944;28;20212;-73
2021/12/17 06:35:59;;;;;;;13.30;11.90;;;8.20;97.20;;;;;;1715004;28;20206;-73
2021/12/17 06:36:51;;;;;;;12.80;11.50;;;8.20;97.20;;;;;;1714959;28;20204;-73
2021/12/17 06:37:43;;;;;;;12.25;11.00;;;8.20;97.20;;;;;;1714991;28;20202;-73
2021/12/17 06:38:35;;;;;;;11.68;10.68;;;8.20;97.20;;;;;;1714893;28;20835;-73
2021/12/17 06:39:26;;;;;;;12.10;10.82;;;8.20;97.20;;;;;;1714603;28;20209;-73
2021/12/17 06:40:17;;;;;;;12.83;11.53;;;8.20;97.20;;;;;;1714815;28;20201;-72
2021/12/17 06:41:08;;;;;;;12.55;11.35;;;8.20;97.20;;;;;;1714831;28;20537;-73
2021/12/17 06:42:00;;;;;;;12.00;10.80;;;8.20;97.20;;;;;;1714240;28;20217;-73
2021/12/17 06:42:51;;;;;;;13.85;10.90;;;8.20;97.20;;;;;;1714755;28;20206;-73
2021/12/17 06:43:44;;;;;;;12.47;11.27;;;8.20;97.20;;;;;;1715016;28;20194;-72
2021/12/17 06:44:35;;;;;;;23.23;11.98;;;8.20;97.20;;;;;;1714749;28;20198;-73
2021/12/17 06:45:40;;;;;;;12.60;10.60;;;8.20;97.20;;;;;;1714851;28;20213;-73
2021/12/17 06:46:36;;;;;;;11.98;10.73;;;8.20;97.20;;;;;;1714924;28;20206;-73
2021/12/17 06:47:32;;;;;;;14.00;12.25;;;8.20;97.20;;;;;;1715032;28;20310;-73
2021/12/17 06:48:27;;;;;;;12.68;10.70;;;8.20;97.20;;;;;;1714954;28;20293;-73
2021/12/17 06:49:24;;;;;;;11.77;10.65;;;8.20;97.20;;;;;;1714510;28;20198;-73
2021/12/17 06:55:02;;;;;;;12.95;11.75;;;8.20;97.20;;;;;;1714819;28;20197;-73
2021/12/17 06:58:47;;;;;;;12.38;11.18;;;8.20;97.20;;;;;;1714927;28;20257;-73
2021/12/17 06:59:48;;;;;;;12.35;11.13;;;8.20;97.20;;;;;;1715455;28;20268;-73
2021/12/17 07:00:58;;;;;;;11.30;10.30;;;8.20;97.20;;;;;;1721356;28;20779;-73
2021/12/17 07:06:51;;;;;;;12.13;10.93;;;8.20;97.20;;;;;;1721567;28;20232;-73
2021/12/17 07:10:18;;;;;;;11.75;10.55;;;8.20;97.20;;;;;;1721442;28;20668;-73
2021/12/17 07:11:19;;;;;;;11.45;10.35;;;8.20;97.20;;;;;;1721423;28;20205;-73
2021/12/17 07:21:55;;;;;;;11.63;10.52;;;8.30;97.20;;;;;;1754240;28;20538;-74
2021/12/17 07:23:01;;;;;;;10.68;9.68;;;8.30;97.20;;;;;;1754080;28;20201;-75
2021/12/17 07:33:38;;;;;;;9.50;8.57;;;8.20;97.20;;;;;;1747158;28;20628;-74
2021/12/17 07:34:43;;;;;;;11.30;9.20;;;8.30;97.20;;;;;;1746911;28;20210;-73
2021/12/17 07:35:48;;;;;;;9.73;8.82;;;8.30;97.20;;;;;;1747166;28;20195;-74
2021/12/17 07:36:41;;;;;;;9.93;8.93;;;8.30;97.20;;;;;;1747115;28;20273;-74
2021/12/17 07:38:48;;;;;;;9.43;8.63;;;8.30;97.20;;;;;;1746819;28;20206;-74
2021/12/17 07:39:39;;;;;;;10.82;9.43;;;8.30;97.20;;;;;;1747068;28;20206;-74
2021/12/17 07:40:30;;;;;;;10.02;8.90;;;8.30;97.20;;;;;;1746835;28;20650;-74
2021/12/17 07:41:21;;;;;;;9.93;9.03;;;8.30;97.20;;;;;;1747012;28;20614;-74
2021/12/17 07:42:12;;;;;;;10.15;9.25;;;8.20;97.20;;;;;;1747124;28;21273;-74
2021/12/17 07:43:11;;;;;;;10.03;8.97;;;8.20;97.20;;;;;;1748723;28;20572;-73
2021/12/17 07:44:03;;;;;;;9.90;9.00;;;8.30;97.20;;;;;;1753859;28;20345;-73
2021/12/17 07:44:54;;;;;;;10.50;9.52;;;8.30;97.20;;;;;;1752052;28;20197;-73
2021/12/17 07:45:46;;;;;;;10.87;8.93;;;8.30;97.20;;;;;;1749503;28;20289;-74
2021/12/17 07:46:38;;;;;;;10.48;9.38;;;8.30;97.20;;;;;;1753874;28;20330;-74
2021/12/17 07:47:28;;;;;;;11.73;9.95;;;8.30;97.20;;;;;;1747760;28;20194;-74
2021/12/17 07:48:21;;;;;;;9.93;8.93;;;8.30;97.20;;;;;;1752996;28;20200;-74
2021/12/17 07:49:12;;;;;;;10.82;9.82;;;8.30;97.20;;;;;;1753452;28;20246;-74
2021/12/17 07:50:04;;;;;;;13.30;10.60;;;8.30;97.20;;;;;;1753642;28;20218;-73
2021/12/17 07:50:55;;;;;;;10.30;9.30;;;8.30;97.20;;;;;;1753768;28;20343;-74
2021/12/17 07:51:47;;;;;;;10.83;9.80;;;8.30;97.20;;;;;;1753795;28;20231;-73
2021/12/17 07:52:38;;;;;;;9.57;8.73;;;8.30;97.20;;;;;;1753795;28;20240;-74
2021/12/17 07:53:30;;;;;;;9.60;8.70;;;8.30;97.20;;;;;;1753774;28;20197;-74
2021/12/17 07:54:21;;;;;;;10.75;9.75;;;8.30;97.20;;;;;;1753725;28;20209;-74
2021/12/17 07:55:12;;;;;;;10.20;9.30;;;8.30;97.20;;;;;;1753890;28;20272;-74
2021/12/17 07:56:06;;;;;;;11.38;10.27;;;8.30;97.20;;;;;;1753793;28;20665;-73
2021/12/17 07:56:57;;;;;;;10.23;9.27;;;8.30;97.20;;;;;;1753775;28;20202;-74
2021/12/17 07:57:48;;;;;;;10.43;9.33;;;8.30;97.20;;;;;;1753014;28;20202;-74
2021/12/17 07:58:41;;;;;;;9.98;8.98;;;8.30;97.20;;;;;;1752798;28;20229;-74
2021/12/17 07:59:32;;;;;;;9.70;8.80;;;8.30;97.20;;;;;;1753789;28;20240;-74
2021/12/17 08:00:24;;;;;;;10.90;9.80;;;8.30;97.20;;;;;;1753532;28;20197;-74
2021/12/17 08:01:16;;;;;;;10.23;8.65;;;8.30;97.20;;;;;;1753786;28;20580;-74
2021/12/17 08:02:08;;;;;;;10.90;9.48;;;8.30;97.20;;;;;;1753877;28;20210;-74
2021/12/17 08:02:59;;;;;;;10.60;9.60;;;8.30;97.20;;;;;;1753758;28;20692;-74
2021/12/17 08:03:50;;;;;;;9.77;8.87;;;8.30;97.20;;;;;;1753806;28;20612;-74
2021/12/17 08:04:41;;;;;;;10.48;9.50;;;8.30;97.20;;;;;;1753680;28;20604;-74
2021/12/17 08:05:33;;;;;;;10.50;9.10;;;8.30;97.20;;;;;;1753763;28;20561;-74
2021/12/17 08:06:25;;;;;;;10.80;9.70;;;8.30;97.20;;;;;;1753631;28;20232;-74
2021/12/17 08:07:16;;;;;;;10.18;9.18;;;8.30;97.20;;;;;;1753753;28;20225;-74
2021/12/17 08:08:07;;;;;;;14.93;9.83;;;8.30;97.20;;;;;;1753708;28;20675;-73
2021/12/17 08:08:58;;;;;;;10.10;9.10;;;8.30;97.20;;;;;;1753483;28;20232;-74
2021/12/17 08:09:50;;;;;;;11.00;10.00;;;8.30;97.20;;;;;;1753574;28;20201;-74
2021/12/17 08:10:41;;;;;;;10.43;9.45;;;8.30;97.20;;;;;;1753535;28;20260;-73
2021/12/17 08:11:38;;;;;;;10.70;9.60;;;8.30;97.20;;;;;;1753737;28;20201;-74
2021/12/17 08:12:29;;;;;;;12.73;9.35;;;8.40;97.20;;;;;;1753613;28;20467;-73
2021/12/17 08:13:23;;;;;;;11.47;9.80;;;8.40;97.20;;;;;;1753618;28;20224;-74
2021/12/17 08:14:16;;;;;;;10.85;9.85;;;8.40;97.20;;;;;;1753687;28;20301;-74
2021/12/17 08:15:11;;;;;;;10.75;9.65;;;8.40;97.20;;;;;;1751575;28;20185;-73
2021/12/17 08:16:18;;;;;;;10.50;9.50;;;8.40;97.20;;;;;;1753296;28;20569;-73
2021/12/17 08:17:30;;;;;;;9.68;8.77;;;8.40;97.20;;;;;;1751404;28;20288;-74
2021/12/17 08:18:33;;;;;;;10.50;9.50;;;8.40;97.20;;;;;;1746626;28;20222;-74
2021/12/17 08:23:28;;;;;;;9.93;8.98;;;8.40;97.20;;;;;;1746687;28;20205;-73
2021/12/17 08:25:45;;;;;;;9.38;8.57;;;8.40;97.20;;;;;;1746633;28;20209;-74
2021/12/17 08:26:52;;;;;;;9.82;8.70;;;8.40;97.20;;;;;;1748015;28;20210;-74
2021/12/17 08:27:50;;;;;;;10.40;9.30;;;8.40;97.20;;;;;;1753563;28;20789;-74
2021/12/17 08:28:54;;;;;;;10.00;8.65;;;8.40;97.20;;;;;;1753304;28;20726;-74
2021/12/17 08:29:54;;;;;;;10.25;9.25;;;8.40;97.20;;;;;;1753323;28;20274;-73
2021/12/17 08:30:45;;;;;;;9.95;9.10;;;8.40;97.20;;;;;;1753420;28;20261;-74
2021/12/17 08:31:37;;;;;;;9.70;8.70;;;8.40;97.20;;;;;;1753575;28;20202;-74
2021/12/17 08:32:30;;;;;;;9.20;8.40;;;8.40;97.20;;;;;;1753517;28;20444;-74
2021/12/17 08:33:21;;;;;;;10.50;9.00;;;8.50;97.20;;;;;;1753533;28;20244;-74
2021/12/17 08:34:13;;;;;;;9.73;8.82;;;8.50;97.20;;;;;;1750780;28;20540;-74
2021/12/17 08:35:06;;;;;;;9.65;8.65;;;8.50;97.20;;;;;;1746239;28;20210;-73
2021/12/17 08:35:59;;;;;;;9.60;8.80;;;8.50;97.20;;;;;;1746499;28;20202;-73
2021/12/17 08:36:50;;;;;;;10.00;9.10;;;8.50;97.20;;;;;;1748255;28;20207;-74
2021/12/17 08:37:43;;;;;;;10.23;8.98;;;8.50;97.20;;;;;;1746304;28;20557;-74
2021/12/17 08:38:34;;;;;;;9.73;8.85;;;8.50;97.20;;;;;;1746388;28;20222;-74
2021/12/17 08:39:26;;;;;;;10.20;9.30;;;8.60;97.20;;;;;;1745741;28;20277;-74
2021/12/17 08:40:19;;;;;;;9.27;8.45;;;8.60;97.20;;;;;;1750855;28;20840;-74
2021/12/17 08:41:10;;;;;;;10.93;9.82;;;8.60;97.20;;;;;;1751417;28;20212;-74
2021/12/17 08:42:02;;;;;;;9.65;8.75;;;8.70;97.20;;;;;;1748653;28;20691;-74
2021/12/17 08:42:53;;;;;;;10.18;9.13;;;8.70;97.20;;;;;;1748634;28;20206;-74
2021/12/17 08:43:45;;;;;;;9.40;8.50;;;8.80;97.20;;;;;;1747764;28;20209;-74
2021/12/17 08:44:36;;;;;;;9.38;8.48;;;8.80;97.20;;;;;;1748518;28;20924;-73
2021/12/17 08:45:28;;;;;;;9.30;8.50;;;8.90;97.20;;;;;;1748467;28;20203;-73
2021/12/17 08:46:19;;;;;;;9.82;8.25;;;8.90;97.20;;;;;;1748693;28;20217;-74
2021/12/17 08:47:10;;;;;;;9.20;8.30;;;9.00;97.20;;;;;;1748608;28;20190;-74
2021/12/17 08:48:03;;;;;;;9.40;8.50;;;9.00;97.20;;;;;;1748754;28;20214;-74
2021/12/17 08:48:55;;;;;;;8.95;8.15;;;9.10;97.20;;;;;;1748587;28;20669;-74
2021/12/17 08:49:48;;;;;;;10.10;7.90;;;9.10;97.20;;;;;;1748658;28;20206;-74
2021/12/17 08:50:39;;;;;;;8.05;7.35;;;9.20;97.20;;;;;;1748581;28;20607;-74
2021/12/17 08:51:31;;;;;;;8.32;7.60;;;9.20;97.20;;;;;;1748781;28;20753;-74
2021/12/17 08:52:22;;;;;;;9.35;8.35;;;9.30;97.20;;;;;;1748479;28;20202;-74
2021/12/17 08:53:13;;;;;;;9.00;8.10;;;9.30;97.20;;;;;;1748890;28;20205;-74
2021/12/17 08:54:06;;;;;;;8.23;7.43;;;9.40;97.20;;;;;;1748591;28;20199;-74
2021/12/17 08:54:56;;;;;;;8.70;7.88;;;9.40;97.20;;;;;;1748828;28;20586;-74
2021/12/17 08:55:48;;;;;;;8.97;8.07;;;9.40;97.20;;;;;;1744708;28;20294;-74
2021/12/17 08:56:43;;;;;;;8.70;7.85;;;9.50;97.20;;;;;;1741829;28;20199;-74
2021/12/17 08:57:35;;;;;;;8.63;7.82;;;9.50;97.20;;;;;;1741867;28;20253;-74
2021/12/17 08:58:25;;;;;;;8.15;7.45;;;9.60;97.20;;;;;;1741887;28;20234;-74
2021/12/17 08:59:17;;;;;;;8.63;7.73;;;9.60;97.20;;;;;;1741650;28;20206;-74
2021/12/17 09:00:11;;;;;;;8.38;7.57;;;9.60;97.20;;;;;;1741774;28;20210;-74
2021/12/17 09:01:05;;;;;;;8.55;7.68;;;9.70;97.20;;;;;;1741794;28;20200;-74
2021/12/17 09:01:56;;;;;;;7.82;7.13;;;9.70;97.20;;;;;;1741856;28;20206;-74
2021/12/17 09:02:48;;;;;;;8.95;8.05;;;9.80;97.20;;;;;;1741886;28;20229;-74
2021/12/17 09:03:40;;;;;;;8.40;7.60;;;9.80;97.20;;;;;;1741779;28;20753;-74
2021/12/17 09:04:31;;;;;;;8.75;7.85;;;9.90;97.20;;;;;;1741822;28;20199;-74
2021/12/17 09:05:22;;;;;;;7.70;7.00;;;9.90;97.20;;;;;;1741739;28;20203;-74
2021/12/17 09:06:14;;;;;;;8.10;7.40;;;10.00;97.20;;;;;;1741891;28;20199;-74
2021/12/17 09:07:06;;;;;;;7.93;7.22;;;10.00;97.20;;;;;;1741724;28;20246;-74
2021/12/17 09:07:58;;;;;;;8.25;7.55;;;10.10;97.20;;;;;;1741745;28;20221;-74
2021/12/17 09:08:54;;;;;;;9.15;8.05;;;10.10;97.20;;;;;;1741574;28;20571;-74
2021/12/17 09:09:47;;;;;;;8.45;7.75;;;10.20;97.20;;;;;;1741729;28;20243;-74
2021/12/17 09:10:39;;;;;;;8.82;8.02;;;10.20;97.20;;;;;;1741600;28;20706;-74
2021/12/17 09:11:31;;;;;;;7.63;6.82;;;10.20;97.20;;;;;;1746094;28;20234;-74
2021/12/17 09:12:21;;;;;;;8.27;7.57;;;10.30;97.20;;;;;;1748536;28;20203;-74
2021/12/17 09:13:13;;;;;;;8.00;7.00;;;10.30;97.20;;;;;;1748674;28;20282;-74
2021/12/17 09:14:06;;;;;;;8.30;7.50;;;10.30;97.20;;;;;;1748533;28;20811;-74
2021/12/17 09:14:59;;;;;;;8.65;7.80;;;10.30;97.20;;;;;;1748612;28;20202;-74
2021/12/17 09:15:49;;;;;;;7.65;7.05;;;10.40;97.20;;;;;;1748643;28;20248;-74
2021/12/17 09:16:41;;;;;;;7.97;7.27;;;10.40;97.20;;;;;;1748676;28;20202;-74
2021/12/17 09:17:35;;;;;;;8.13;7.43;;;10.40;97.20;;;;;;1748610;28;20221;-74
2021/12/17 09:18:27;;;;;;;8.45;7.65;;;10.50;97.20;;;;;;1748527;28;20195;-74
2021/12/17 09:19:19;;;;;;;8.88;8.10;;;10.50;97.20;;;;;;1748436;28;20198;-74
2021/12/17 09:20:11;;;;;;;7.97;7.15;;;10.50;97.20;;;;;;1748580;28;20202;-74
2021/12/17 09:21:02;;;;;;;8.00;7.30;;;10.60;97.20;;;;;;1748571;28;20203;-74
2021/12/17 09:21:54;;;;;;;8.20;7.40;;;10.70;97.20;;;;;;1748706;28;20203;-74
2021/12/17 09:22:45;;;;;;;8.20;7.45;;;10.70;97.20;;;;;;1748534;28;20826;-74
2021/12/17 09:23:37;;;;;;;8.18;7.47;;;10.70;97.20;;;;;;1748595;28;20198;-74
2021/12/17 09:24:27;;;;;;;7.82;7.13;;;10.80;97.20;;;;;;1748528;28;20214;-74
2021/12/17 09:25:19;;;;;;;7.40;6.70;;;10.80;97.20;;;;;;1748578;28;20281;-74
2021/12/17 09:26:11;;;;;;;8.35;7.55;;;10.90;97.20;;;;;;1748631;28;20726;-74
2021/12/17 09:27:03;;;;;;;8.15;7.43;;;11.00;97.20;;;;;;1747297;28;20198;-74
2021/12/17 09:27:53;;;;;;;8.60;7.80;;;11.00;97.20;;;;;;1748357;28;20206;-74
2021/12/17 09:28:45;;;;;;;8.43;7.63;;;11.10;97.20;;;;;;1748245;28;20209;-74
2021/12/17 09:29:36;;;;;;;7.63;7.00;;;11.10;97.20;;;;;;1748475;28;20195;-74
2021/12/17 09:30:28;;;;;;;8.38;7.65;;;11.20;97.20;;;;;;1748281;28;20194;-74
2021/12/17 09:31:19;;;;;;;8.25;7.53;;;11.20;97.20;;;;;;1748531;28;20198;-73
2021/12/17 09:32:11;;;;;;;7.65;6.95;;;11.20;97.20;;;;;;1748620;28;20684;-74
2021/12/17 09:33:02;;;;;;;7.45;6.85;;;11.20;97.20;;;;;;1748533;28;20241;-74
2021/12/17 09:33:54;;;;;;;8.60;7.20;;;11.30;97.20;;;;;;1748501;28;20194;-74
2021/12/17 09:34:46;;;;;;;9.32;8.32;;;11.30;97.20;;;;;;1748389;28;20202;-73
2021/12/17 09:35:38;;;;;;;8.15;7.38;;;11.40;97.20;;;;;;1748543;28;20198;-73
2021/12/17 09:36:28;;;;;;;7.43;6.72;;;11.40;97.20;;;;;;1748484;28;20198;-74
2021/12/17 09:37:20;;;;;;;8.53;7.83;;;11.40;97.20;;;;;;1748411;28;20203;-74
2021/12/17 09:38:11;;;;;;;7.72;7.07;;;11.40;97.20;;;;;;1748539;28;20198;-74
2021/12/17 09:39:04;;;;;;;7.90;7.27;;;11.40;97.20;;;;;;1748201;28;20206;-74
2021/12/17 09:39:54;;;;;;;8.57;7.88;;;11.30;97.20;;;;;;1748476;28;20784;-73
2021/12/17 09:40:46;;;;;;;8.40;7.63;;;11.30;97.20;;;;;;1748306;28;20635;-73
2021/12/17 09:41:43;;;;;;;7.85;7.25;;;11.30;97.20;;;;;;1748446;28;20229;-74
2021/12/17 09:42:34;;;;;;;8.98;8.18;;;11.30;97.20;;;;;;1748480;28;20206;-74
2021/12/17 09:43:25;;;;;;;8.70;7.90;;;11.30;97.20;;;;;;1747701;28;20213;-74
2021/12/17 09:44:16;;;;;;;7.65;6.95;;;11.30;97.20;;;;;;1748462;28;20237;-73
2021/12/17 09:45:09;;;;;;;8.35;7.55;;;11.30;97.20;;;;;;1748508;28;20277;-74
2021/12/17 09:46:00;;;;;;;8.38;7.68;;;11.30;97.20;;;;;;1748441;28;20713;-74
2021/12/17 09:46:57;;;;;;;8.60;7.80;;;11.40;97.20;;;;;;1748477;28;20205;-74
2021/12/17 09:47:49;;;;;;;8.23;7.53;;;11.30;97.20;;;;;;1748069;28;20203;-74
2021/12/17 09:48:40;;;;;;;8.60;7.80;;;11.30;97.20;;;;;;1748067;28;20202;-73
2021/12/17 09:49:32;;;;;;;8.23;7.53;;;11.30;97.20;;;;;;1748465;28;20209;-74
2021/12/17 09:50:24;;;;;;;7.80;7.10;;;11.30;97.20;;;;;;1748192;28;20600;-74
2021/12/17 09:51:18;;;;;;;8.00;7.25;;;11.30;97.20;;;;;;1748427;28;20285;-74
2021/12/17 09:52:09;;;;;;;7.53;6.93;;;11.30;97.20;;;;;;1748339;28;20202;-73
2021/12/17 09:53:01;;;;;;;7.53;6.83;;;11.30;97.20;;;;;;1747769;28;20205;-74
2021/12/17 09:53:52;;;;;;;8.43;7.72;;;11.40;97.20;;;;;;1748091;28;20479;-74
2021/12/17 09:54:44;;;;;;;8.00;7.30;;;11.40;97.20;;;;;;1748366;28;20677;-74
2021/12/17 09:55:36;;;;;;;8.15;7.45;;;11.50;97.20;;;;;;1748403;28;20904;-74
2021/12/17 09:56:28;;;;;;;7.63;6.95;;;11.60;97.20;;;;;;1748366;28;20202;-74
2021/12/17 09:57:20;;;;;;;7.97;7.28;;;11.70;97.20;;;;;;1748310;28;20194;-74
2021/12/17 09:58:12;;;;;;;9.05;8.25;;;11.80;97.20;;;;;;1748395;28;20707;-73
2021/12/17 09:59:03;;;;;;;7.70;6.95;;;11.90;97.20;;;;;;1743614;28;20571;-74
2021/12/17 09:59:56;;;;;;;7.30;6.60;;;11.90;97.20;;;;;;1741432;28;20339;-74
2021/12/17 10:00:46;;;;;;;7.63;6.93;;;12.00;97.20;;;;;;1741309;28;20241;-74
2021/12/17 10:01:39;;;;;;;7.30;6.60;;;12.10;97.20;;;;;;1741415;28;20209;-74
2021/12/17 10:02:29;;;;;;;8.50;7.80;;;12.20;97.20;;;;;;1741515;28;20449;-74
2021/12/17 10:03:21;;;;;;;7.33;6.63;;;12.20;97.20;;;;;;1741462;28;20230;-74
2021/12/17 10:04:18;;;;;;;7.72;7.03;;;12.20;97.20;;;;;;1741441;28;20222;-74
2021/12/17 10:05:14;;;;;;;8.32;7.63;;;12.30;97.20;;;;;;1741554;28;20210;-74
2021/12/17 10:06:19;;;;;;;8.02;7.32;;;12.30;97.20;;;;;;1741405;28;20207;-74
2021/12/17 10:07:19;;;;;;;8.30;7.50;;;12.40;97.20;;;;;;1741501;28;20210;-74
2021/12/17 10:08:11;;;;;;;8.77;7.88;;;12.40;97.20;;;;;;1741424;28;20204;-73
2021/12/17 10:09:03;;;;;;;8.15;7.45;;;12.50;97.20;;;;;;1741111;28;20262;-74
2021/12/17 10:09:56;;;;;;;8.48;7.78;;;12.50;97.20;;;;;;1741414;28;20716;-74
2021/12/17 10:10:55;;;;;;;9.20;8.43;;;12.60;97.20;;;;;;1741308;28;20309;-74
2021/12/17 10:12:03;;;;;;;8.48;7.72;;;12.70;97.20;;;;;;1741367;28;20242;-74
2021/12/17 10:13:06;;;;;;;8.00;7.25;;;12.80;97.20;;;;;;1741427;28;20249;-74
2021/12/17 10:14:15;;;;;;;8.55;7.75;;;12.90;97.20;;;;;;1741388;28;20199;-74
2021/12/17 10:15:10;;;;;;;8.75;7.95;;;13.00;97.20;;;;;;1742528;28;20654;-74
2021/12/17 10:16:06;;;;;;;9.02;8.23;;;13.10;97.20;;;;;;1741216;28;20207;-74
2021/12/17 10:17:12;;;;;;;8.63;7.95;;;13.30;97.20;;;;;;1741391;28;20210;-74
2021/12/17 10:18:03;;;;;;;7.28;6.68;;;13.40;97.20;;;;;;1741269;28;20259;-74
2021/12/17 10:18:55;;;;;;;7.95;7.25;;;13.50;97.20;;;;;;1741033;28;20198;-74
2021/12/17 10:19:47;;;;;;;8.55;7.65;;;13.60;97.20;;;;;;1741268;28;20222;-74
2021/12/17 10:20:43;;;;;;;8.10;7.25;;;13.70;97.20;;;;;;1741129;28;20223;-74
2021/12/17 10:21:38;;;;;;;9.73;8.90;;;13.80;97.20;;;;;;1741318;28;20233;-74
2021/12/17 10:22:31;;;;;;;7.88;7.07;;;13.90;97.20;;;;;;1741369;28;20218;-74
2021/12/17 10:23:25;;;;;;;8.52;7.45;;;14.10;97.20;;;;;;1746265;28;20332;-74
2021/12/17 10:24:22;;;;;;;10.23;7.22;;;14.10;97.20;;;;;;1748052;28;20669;-74
2021/12/17 10:25:14;;;;;;;8.15;7.50;;;14.30;97.20;;;;;;1748142;28;20198;-74
2021/12/17 10:26:11;;;;;;;7.75;7.15;;;14.50;97.20;;;;;;1748160;28;20226;-74
2021/12/17 10:27:17;;;;;;;8.30;7.53;;;14.60;97.20;;;;;;1748167;28;20230;-74
2021/12/17 10:28:09;;;;;;;8.32;7.53;;;14.80;97.20;;;;;;1748229;28;20205;-74
2021/12/17 10:29:04;;;;;;;7.70;7.00;;;15.00;97.20;;;;;;1747775;28;20202;-74
2021/12/17 10:29:57;;;;;;;9.60;7.60;;;15.10;97.20;;;;;;1748037;28;20579;-74
2021/12/17 10:30:49;;;;;;;8.50;7.70;;;15.20;97.20;;;;;;1746259;28;20258;-74
2021/12/17 10:31:40;;;;;;;8.00;7.20;;;15.30;97.20;;;;;;1748051;28;20207;-74
2021/12/17 10:32:32;;;;;;;8.20;7.50;;;15.50;97.20;;;;;;1748166;28;20194;-74
2021/12/17 10:33:27;;;;;;;9.00;8.30;;;15.60;97.20;;;;;;1748115;28;20274;-74
2021/12/17 10:34:18;;;;;;;17.17;8.30;;;15.70;97.20;;;;;;1748095;28;20566;-74
2021/12/17 10:35:13;;;;;;;8.02;7.32;;;15.80;97.20;;;;;;1747673;28;20205;-74
2021/12/17 10:36:10;;;;;;;9.15;7.75;;;15.90;97.20;;;;;;1748164;28;20210;-74
2021/12/17 10:37:03;;;;;;;7.55;6.85;;;16.00;97.20;;;;;;1748146;28;20210;-74
2021/12/17 10:37:57;;;;;;;8.88;7.97;;;16.10;97.20;;;;;;1748058;28;20251;-74
2021/12/17 10:38:49;;;;;;;7.63;7.03;;;16.30;97.20;;;;;;1747813;28;20747;-74
2021/12/17 10:39:40;;;;;;;7.60;6.90;;;16.40;97.20;;;;;;1748073;28;20209;-74
2021/12/17 10:40:35;;;;;;;8.77;7.93;;;16.50;97.20;;;;;;1747950;28;20198;-74
2021/12/17 10:41:27;;;;;;;8.35;7.55;;;16.60;97.20;;;;;;1748130;28;20287;-74
2021/12/17 10:42:25;;;;;;;8.18;7.47;;;16.70;97.20;;;;;;1748053;28;20202;-74
2021/12/17 10:43:25;;;;;;;8.50;7.70;;;16.80;97.20;;;;;;1748104;28;20199;-74
2021/12/17 10:44:16;;;;;;;7.78;7.10;;;16.80;97.20;;;;;;1748112;28;20264;-74
2021/12/17 10:45:12;;;;;;;8.83;8.13;;;16.90;97.20;;;;;;1748050;28;20198;-74
2021/12/17 10:46:09;;;;;;;8.63;7.93;;;17.00;97.20;;;;;;1748087;28;20448;-74
2021/12/17 10:47:13;;;;;;;8.32;7.55;;;17.10;97.20;;;;;;1744981;28;20196;-74
2021/12/17 10:48:25;;;;;;;7.07;6.47;;;17.20;97.20;;;;;;1741151;28;20670;-74
2021/12/17 10:49:17;;;;;;;7.60;6.90;;;17.30;97.20;;;;;;1740930;28;20325;-74
2021/12/17 10:50:08;;;;;;;8.52;7.72;;;17.40;97.20;;;;;;1741070;28;20211;-74
2021/12/17 10:51:18;;;;;;;8.67;7.87;;;17.50;97.20;;;;;;1741010;28;20302;-74
2021/12/17 10:52:16;;;;;;;8.00;7.30;;;17.60;97.20;;;;;;1741086;28;20493;-74
2021/12/17 10:53:07;;;;;;;8.20;7.40;;;17.70;97.20;;;;;;1741172;28;20203;-74
2021/12/17 10:54:03;;;;;;;8.63;7.82;;;17.70;97.20;;;;;;1741109;28;20203;-74
2021/12/17 10:55:07;;;;;;;8.80;8.10;;;17.80;97.20;;;;;;1741108;28;20203;-74
2021/12/17 10:56:00;;;;;;;8.20;7.50;;;17.90;97.20;;;;;;1741245;28;20199;-74
2021/12/17 10:56:53;;;;;;;8.50;7.70;;;18.00;97.20;;;;;;1741077;28;20206;-74
2021/12/17 10:57:48;;;;;;;7.60;6.90;;;18.10;97.20;;;;;;1741171;28;20199;-74
2021/12/17 10:58:53;;;;;;;8.10;7.20;;;18.20;97.20;;;;;;1740920;28;20289;-74
2021/12/17 10:59:45;;;;;;;7.78;7.07;;;18.30;97.20;;;;;;1741060;28;20203;-74
2021/12/17 11:00:46;;;;;;;7.47;6.88;;;18.30;97.20;;;;;;1740990;28;20214;-74
2021/12/17 11:01:41;;;;;;;7.20;6.60;;;18.40;97.20;;;;;;1741129;28;20203;-74
2021/12/17 11:02:33;;;;;;;7.13;6.63;;;18.40;97.20;;;;;;1742125;28;20215;-74
2021/12/17 11:03:25;;;;;;;8.95;6.82;;;18.50;97.20;;;;;;1741074;28;20191;-74
2021/12/17 11:04:19;;;;;;;6.50;6.00;;;18.60;97.20;;;;;;1740729;28;20211;-74
2021/12/17 11:05:12;;;;;;;7.70;7.00;;;18.60;97.20;;;;;;1741014;28;20203;-74
2021/12/17 11:06:03;;;;;;;7.78;7.18;;;18.70;97.20;;;;;;1741055;28;20237;-74
2021/12/17 11:06:57;;;;;;;7.57;6.88;;;18.70;97.20;;;;;;1741102;28;20265;-74
2021/12/17 11:07:51;;;;;;;6.80;6.30;;;18.80;97.20;;;;;;1740682;28;20214;-74
2021/12/17 11:08:47;;;;;;;7.00;6.45;;;18.80;97.20;;;;;;1740361;28;20237;-75
2021/12/17 11:09:45;;;;;;;7.72;7.13;;;18.90;97.20;;;;;;1740470;28;20202;-74
2021/12/17 11:10:37;;;;;;;7.60;6.90;;;18.90;97.20;;;;;;1740381;28;20219;-74
2021/12/17 11:11:33;;;;;;;7.72;7.13;;;19.00;97.20;;;;;;1740761;28;20261;-74
2021/12/17 11:12:34;;;;;;;7.35;6.75;;;19.00;97.20;;;;;;1740362;28;20666;-74
2021/12/17 11:13:25;;;;;;;7.70;7.10;;;19.10;97.20;;;;;;1740571;28;20650;-74
2021/12/17 11:14:23;;;;;;;8.30;7.50;;;19.10;97.20;;;;;;1740402;28;20651;-74
2021/12/17 11:15:18;;;;;;;7.65;7.05;;;19.20;97.20;;;;;;1740384;28;20214;-74
2021/12/17 11:16:10;;;;;;;7.78;7.18;;;19.20;97.20;;;;;;1739949;28;20767;-74
2021/12/17 11:17:01;;;;;;;8.48;7.70;;;19.20;97.20;;;;;;1758891;23;20223;-79
2021/12/17 11:17:55;;;;;;;7.40;6.80;;;19.20;97.20;;;;;;1734491;28;20216;-79
2021/12/17 11:18:47;;;;;;;8.45;7.75;;;19.30;97.20;;;;;;1734550;28;20605;-79
2021/12/17 11:19:41;;;;;;;8.05;7.35;;;19.30;97.20;;;;;;1734672;28;20200;-79